createdAt,value
2019-03-24T00:00:05.421Z,71.14
2019-03-24T00:03:09.277Z,71.15
2019-03-24T00:06:13.043Z,71.02
2019-03-24T00:09:16.362Z,71.44
2019-03-24T00:12:20.176Z,71.46
2019-03-24T00:15:26.424Z,70.92
2019-03-24T00:18:29.084Z,71.74
2019-03-24T00:21:32.440Z,71.15
2019-03-24T00:24:35.752Z,71.25
2019-03-24T00:27:39.091Z,70.64
2019-03-24T00:30:42.408Z,70.15
2019-03-24T00:33:46.115Z,70.64
2019-03-24T00:36:49.483Z,71.24
2019-03-24T00:39:52.815Z,71.13
2019-03-24T00:42:56.151Z,70.96
2019-03-24T00:46:00.165Z,71.19
2019-03-24T00:49:04.952Z,71.70
2019-03-24T00:52:09.565Z,71.83
2019-03-24T00:55:12.956Z,71.93
2019-03-24T00:58:16.265Z,71.06
2019-03-24T01:01:19.666Z,70.82
2019-03-24T01:04:23.015Z,71.63
2019-03-24T01:07:26.333Z,71.21
2019-03-24T01:10:29.630Z,71.41
2019-03-24T01:13:32.987Z,71.31
2019-03-24T01:16:36.320Z,71.81
2019-03-24T01:19:39.667Z,71.63
2019-03-24T01:22:42.975Z,72.09
2019-03-24T01:25:46.287Z,71.85
2019-03-24T01:28:49.615Z,72.34
2019-03-24T01:31:52.939Z,73.26
2019-03-24T01:34:56.256Z,73.49
2019-03-24T01:37:59.559Z,72.92
2019-03-24T01:41:03.071Z,73.19
2019-03-24T01:44:06.402Z,73.81
2019-03-24T01:47:09.736Z,73.85
2019-03-24T01:50:13.047Z,73.51
2019-03-24T01:53:16.379Z,74.22
2019-03-24T01:56:19.704Z,73.62
2019-03-24T01:59:23.013Z,73.41
2019-03-24T02:02:26.360Z,73.62
2019-03-24T02:05:29.677Z,72.52
2019-03-24T02:08:33.004Z,71.99
2019-03-24T02:11:36.333Z,72.93
2019-03-24T02:14:39.650Z,73.59
2019-03-24T02:17:42.979Z,74.15
2019-03-24T02:20:46.297Z,73.91
2019-03-24T02:23:49.630Z,74.45
2019-03-24T02:26:52.968Z,73.96
2019-03-24T02:29:56.303Z,74.15
2019-03-24T02:32:59.631Z,74.38
2019-03-24T02:36:03.020Z,74.81
2019-03-24T02:39:07.547Z,74.79
2019-03-24T02:42:10.850Z,74.97
2019-03-24T02:45:14.204Z,75.06
2019-03-24T02:48:17.534Z,75.04
2019-03-24T02:51:20.890Z,74.66
2019-03-24T02:54:24.206Z,74.61
2019-03-24T02:57:27.552Z,74.36
2019-03-24T03:00:30.914Z,74.11
2019-03-24T03:03:39.859Z,74.34
2019-03-24T03:06:48.038Z,74.13
2019-03-24T03:09:51.344Z,73.76
2019-03-24T03:12:54.743Z,74.00
2019-03-24T03:15:58.100Z,73.59
2019-03-24T03:19:01.602Z,73.97
2019-03-24T03:22:04.986Z,74.09
2019-03-24T03:25:12.286Z,73.03
2019-03-24T03:28:18.671Z,73.61
2019-03-24T03:31:22.060Z,73.38
2019-03-24T03:34:25.417Z,73.27
2019-03-24T03:37:28.921Z,73.23
2019-03-24T03:40:32.360Z,73.10
2019-03-24T03:43:35.685Z,73.21
2019-03-24T03:46:52.297Z,72.85
2019-03-24T03:49:49.433Z,72.55
2019-03-24T03:52:52.766Z,71.84
2019-03-24T03:55:56.086Z,72.02
2019-03-24T03:59:01.067Z,72.37
2019-03-24T04:02:07.478Z,72.50
2019-03-24T04:05:10.880Z,72.45
2019-03-24T04:08:14.207Z,72.01
2019-03-24T04:11:20.938Z,72.07
2019-03-24T04:14:24.185Z,71.29
2019-03-24T04:17:27.535Z,71.36
2019-03-24T04:20:30.854Z,70.30
2019-03-24T04:23:34.173Z,70.28
2019-03-24T04:26:37.541Z,70.73
2019-03-24T04:29:43.534Z,71.52
2019-03-24T04:32:48.679Z,72.26
2019-03-24T04:35:51.984Z,72.36
2019-03-24T04:38:55.449Z,71.97
2019-03-24T04:41:58.806Z,72.67
2019-03-24T04:45:02.125Z,71.96
2019-03-24T04:48:05.475Z,71.66
2019-03-24T04:51:08.824Z,70.93
2019-03-24T04:54:12.146Z,69.96
2019-03-24T04:57:15.506Z,70.16
2019-03-24T05:00:22.121Z,70.77
2019-03-24T05:03:25.441Z,71.54
2019-03-24T05:06:28.838Z,72.02
2019-03-24T05:09:32.336Z,72.06
2019-03-24T05:12:35.641Z,71.75
2019-03-24T05:15:38.936Z,70.36
2019-03-24T05:18:42.543Z,70.40
2019-03-24T05:21:45.872Z,71.14
2019-03-24T05:24:49.233Z,71.75
2019-03-24T05:27:52.894Z,72.34
2019-03-24T05:30:56.296Z,71.57
2019-03-24T05:33:59.645Z,71.51
2019-03-24T05:37:03.036Z,71.26
2019-03-24T05:40:06.640Z,71.69
2019-03-24T05:43:10.124Z,71.88
2019-03-24T05:46:13.547Z,71.46
2019-03-24T05:49:16.965Z,71.34
2019-03-24T05:52:20.348Z,71.32
2019-03-24T05:55:23.722Z,71.49
2019-03-24T05:58:27.101Z,71.16
2019-03-24T06:01:30.604Z,70.08
2019-03-24T06:04:34.055Z,69.41
2019-03-24T06:07:37.412Z,70.42
2019-03-24T06:10:41.074Z,70.82
2019-03-24T06:13:46.029Z,70.44
2019-03-24T06:16:49.296Z,70.27
2019-03-24T06:19:54.288Z,69.99
2019-03-24T06:22:57.620Z,70.49
2019-03-24T06:26:02.672Z,70.22
2019-03-24T06:29:06.101Z,70.14
2019-03-24T06:32:09.622Z,69.01
2019-03-24T06:35:13.080Z,68.95
2019-03-24T06:38:16.403Z,69.50
2019-03-24T06:41:19.965Z,70.08
2019-03-24T06:44:23.306Z,69.74
2019-03-24T06:47:26.811Z,68.79
2019-03-24T06:50:31.823Z,68.96
2019-03-24T06:53:36.781Z,69.43
2019-03-24T06:56:41.908Z,69.21
2019-03-24T06:59:45.175Z,69.42
2019-03-24T07:02:48.631Z,69.50
2019-03-24T07:05:53.631Z,69.58
2019-03-24T07:08:58.240Z,69.05
2019-03-24T07:12:01.527Z,68.82
2019-03-24T07:15:06.734Z,68.59
2019-03-24T07:18:11.735Z,68.48
2019-03-24T07:21:22.172Z,68.28
2019-03-24T07:24:25.677Z,68.31
2019-03-24T07:27:29.003Z,69.90
2019-03-24T07:30:32.337Z,70.41
2019-03-24T07:33:35.909Z,70.72
2019-03-24T07:36:39.506Z,70.53
2019-03-24T07:39:42.821Z,70.32
2019-03-24T07:42:46.168Z,69.77
2019-03-24T07:45:49.598Z,69.62
2019-03-24T07:48:52.911Z,69.48
2019-03-24T07:51:56.341Z,71.17
2019-03-24T07:54:59.699Z,70.11
2019-03-24T07:58:03.100Z,70.07
2019-03-24T08:01:06.452Z,70.23
2019-03-24T08:04:11.407Z,69.55
2019-03-24T08:07:16.448Z,69.36
2019-03-24T08:10:19.886Z,69.33
2019-03-24T08:13:23.327Z,70.53
2019-03-24T08:16:26.678Z,68.75
2019-03-24T08:19:30.174Z,69.19
2019-03-24T08:22:33.714Z,68.72
2019-03-24T08:25:37.001Z,68.75
2019-03-24T08:28:40.354Z,68.79
2019-03-24T08:31:43.778Z,69.10
2019-03-24T08:34:48.422Z,69.13
2019-03-24T08:37:52.119Z,68.30
2019-03-24T08:40:55.415Z,68.33
2019-03-24T08:43:58.754Z,68.56
2019-03-24T08:47:02.102Z,68.34
2019-03-24T08:50:07.243Z,68.27
2019-03-24T08:53:10.561Z,68.38
2019-03-24T08:56:14.063Z,68.04
2019-03-24T08:59:17.400Z,68.46
2019-03-24T09:02:20.867Z,68.90
2019-03-24T09:05:24.165Z,68.83
2019-03-24T09:08:27.495Z,69.85
2019-03-24T09:11:31.675Z,69.55
2019-03-24T09:14:35.142Z,69.20
2019-03-24T09:17:40.975Z,68.93
2019-03-24T09:20:43.532Z,68.64
2019-03-24T09:23:46.883Z,68.30
2019-03-24T09:26:50.209Z,67.85
2019-03-24T09:29:53.553Z,67.62
2019-03-24T09:32:56.884Z,68.16
2019-03-24T09:36:00.281Z,67.85
2019-03-24T09:39:04.988Z,66.80
2019-03-24T09:42:08.304Z,66.52
2019-03-24T09:45:11.627Z,66.90
2019-03-24T09:48:14.951Z,66.31
2019-03-24T09:51:18.283Z,66.18
2019-03-24T09:54:21.635Z,65.79
2019-03-24T09:57:24.924Z,66.36
2019-03-24T10:00:28.278Z,66.01
2019-03-24T10:03:31.600Z,66.60
2019-03-24T10:06:34.917Z,66.73
2019-03-24T10:09:38.300Z,68.39
2019-03-24T10:12:41.647Z,66.99
2019-03-24T10:15:44.955Z,66.40
2019-03-24T10:18:48.370Z,66.52
2019-03-24T10:21:51.760Z,66.62
2019-03-24T10:24:55.057Z,64.49
2019-03-24T10:27:58.395Z,63.99
2019-03-24T10:31:01.764Z,62.97
2019-03-24T10:34:05.084Z,64.83
2019-03-24T10:37:08.439Z,64.25
2019-03-24T10:40:12.526Z,64.46
2019-03-24T10:43:15.859Z,65.45
2019-03-24T10:46:19.190Z,65.11
2019-03-24T10:49:25.012Z,65.01
2019-03-24T10:52:27.561Z,63.85
2019-03-24T10:55:30.890Z,63.48
2019-03-24T10:58:34.245Z,61.13
2019-03-24T11:01:37.538Z,61.30
2019-03-24T11:04:40.879Z,60.05
2019-03-24T11:07:44.233Z,59.33
2019-03-24T11:10:47.540Z,60.54
2019-03-24T11:13:50.879Z,59.75
2019-03-24T11:16:54.181Z,59.92
2019-03-24T11:19:57.520Z,61.83
2019-03-24T11:23:00.874Z,61.63
2019-03-24T11:26:04.180Z,61.39
2019-03-24T11:29:07.522Z,60.64
2019-03-24T11:32:10.842Z,60.85
2019-03-24T11:35:14.168Z,63.11
2019-03-24T11:38:17.504Z,62.39
2019-03-24T11:41:20.852Z,62.61
2019-03-24T11:44:24.218Z,62.90
2019-03-24T11:47:27.485Z,63.86
2019-03-24T11:50:30.806Z,65.55
2019-03-24T11:53:34.204Z,64.48
2019-03-24T11:56:37.526Z,63.07
2019-03-24T11:59:40.877Z,63.58
2019-03-24T12:02:44.313Z,63.71
2019-03-24T12:05:47.627Z,63.77
2019-03-24T12:08:51.185Z,63.87
2019-03-24T12:11:54.534Z,64.48
2019-03-24T12:14:57.847Z,63.19
2019-03-24T12:18:01.189Z,63.35
2019-03-24T12:21:04.523Z,64.84
2019-03-24T12:24:07.830Z,64.61
2019-03-24T12:27:11.198Z,64.45
2019-03-24T12:30:14.484Z,64.33
2019-03-24T12:33:17.822Z,65.75
2019-03-24T12:36:21.156Z,65.41
2019-03-24T12:39:24.472Z,64.39
2019-03-24T12:42:27.817Z,64.46
2019-03-24T12:45:33.517Z,64.06
2019-03-24T12:48:36.207Z,64.26
2019-03-24T12:51:39.562Z,64.31
2019-03-24T12:54:42.903Z,63.09
2019-03-24T12:57:46.209Z,61.83
2019-03-24T13:00:49.532Z,62.19
2019-03-24T13:03:52.867Z,62.69
2019-03-24T13:06:56.191Z,62.71
2019-03-24T13:09:59.530Z,63.17
2019-03-24T13:13:02.936Z,63.96
2019-03-24T13:16:06.261Z,64.72
2019-03-24T13:19:09.578Z,65.71
2019-03-24T13:22:12.918Z,65.27
2019-03-24T13:25:16.215Z,66.13
2019-03-24T13:28:19.576Z,66.76
2019-03-24T13:31:22.913Z,66.71
2019-03-24T13:34:26.214Z,66.24
2019-03-24T13:37:29.538Z,67.29
2019-03-24T13:40:32.851Z,66.59
2019-03-24T13:43:36.179Z,67.05
2019-03-24T13:46:39.526Z,66.77
2019-03-24T13:49:42.836Z,67.52
2019-03-24T13:52:46.179Z,66.49
2019-03-24T13:55:49.555Z,66.45
2019-03-24T13:58:52.959Z,65.52
2019-03-24T14:01:56.318Z,65.54
2019-03-24T14:04:59.693Z,66.18
2019-03-24T14:08:03.013Z,66.41
2019-03-24T14:11:06.359Z,65.73
2019-03-24T14:14:09.688Z,66.05
2019-03-24T14:17:13.333Z,66.32
2019-03-24T14:20:16.649Z,66.57
2019-03-24T14:23:19.991Z,66.28
2019-03-24T14:26:23.296Z,66.17
2019-03-24T14:29:27.234Z,64.92
2019-03-24T14:32:30.675Z,63.87
2019-03-24T14:35:33.994Z,64.77
2019-03-24T14:38:37.310Z,64.19
2019-03-24T14:41:40.667Z,65.20
2019-03-24T14:44:43.997Z,64.70
2019-03-24T14:47:47.312Z,64.43
2019-03-24T14:50:54.860Z,64.91
2019-03-24T14:53:55.686Z,64.71
2019-03-24T14:56:59.023Z,64.08
2019-03-24T15:00:02.732Z,65.33
2019-03-24T15:03:06.064Z,63.37
2019-03-24T15:06:09.407Z,64.93
2019-03-24T15:09:12.746Z,64.30
2019-03-24T15:12:16.073Z,63.68
2019-03-24T15:15:19.474Z,64.51
2019-03-24T15:18:22.797Z,64.69
2019-03-24T15:21:26.130Z,64.40
2019-03-24T15:24:29.479Z,64.17
2019-03-24T15:27:32.783Z,63.99
2019-03-24T15:30:36.143Z,63.19
2019-03-24T15:33:39.492Z,63.29
2019-03-24T15:36:42.815Z,63.40
2019-03-24T15:39:46.134Z,64.03
2019-03-24T15:42:49.459Z,64.57
2019-03-24T15:45:52.816Z,64.02
2019-03-24T15:48:56.178Z,63.95
2019-03-24T15:51:59.500Z,64.70
2019-03-24T15:55:03.316Z,64.38
2019-03-24T15:58:06.611Z,64.76
2019-03-24T16:01:09.945Z,64.95
2019-03-24T16:04:13.268Z,64.43
2019-03-24T16:07:16.610Z,65.01
2019-03-24T16:10:19.944Z,63.70
2019-03-24T16:13:23.264Z,64.55
2019-03-24T16:16:26.746Z,64.51
2019-03-24T16:19:30.105Z,64.86
2019-03-24T16:22:33.398Z,64.14
2019-03-24T16:25:36.764Z,64.05
2019-03-24T16:28:40.098Z,63.54
2019-03-24T16:31:43.439Z,63.66
2019-03-24T16:34:46.805Z,63.69
2019-03-24T16:37:50.094Z,63.86
2019-03-24T16:40:53.449Z,64.94
2019-03-24T16:43:56.819Z,64.44
2019-03-24T16:47:00.169Z,65.49
2019-03-24T16:50:05.137Z,66.07
2019-03-24T16:53:08.455Z,66.74
2019-03-24T16:56:11.781Z,66.98
2019-03-24T16:59:15.157Z,66.61
2019-03-24T17:02:18.479Z,65.94
2019-03-24T17:05:21.832Z,65.99
2019-03-24T17:08:25.307Z,65.46
2019-03-24T17:11:28.620Z,66.13
2019-03-24T17:14:31.972Z,65.43
2019-03-24T17:17:35.301Z,65.15
2019-03-24T17:20:38.701Z,65.66
2019-03-24T17:23:42.041Z,65.07
2019-03-24T17:26:45.367Z,63.99
2019-03-24T17:29:48.698Z,63.94
2019-03-24T17:32:52.035Z,63.63
2019-03-24T17:35:55.431Z,63.60
2019-03-24T17:38:58.737Z,63.94
2019-03-24T17:42:02.142Z,64.32
2019-03-24T17:45:10.260Z,65.16
2019-03-24T17:48:13.577Z,65.27
2019-03-24T17:51:16.913Z,65.83
2019-03-24T17:54:20.327Z,65.93
2019-03-24T17:57:23.649Z,66.41
2019-03-24T18:00:43.166Z,66.32
2019-03-24T18:03:46.490Z,66.95
2019-03-24T18:06:49.812Z,67.59
2019-03-24T18:09:53.132Z,67.53
2019-03-24T18:12:56.468Z,67.89
2019-03-24T18:15:59.811Z,66.62
2019-03-24T18:19:03.190Z,66.08
2019-03-24T18:22:11.550Z,66.96
2019-03-24T18:25:11.569Z,67.39
2019-03-24T18:28:14.928Z,67.84
2019-03-24T18:31:18.227Z,68.04
2019-03-24T18:34:21.575Z,67.62
2019-03-24T18:37:24.917Z,67.75
2019-03-24T18:40:28.244Z,67.65
2019-03-24T18:43:31.570Z,68.35
2019-03-24T18:46:34.898Z,69.70
2019-03-24T18:49:38.270Z,69.87
2019-03-24T18:52:41.661Z,69.63
2019-03-24T18:55:44.983Z,68.72
2019-03-24T18:58:48.358Z,68.39
2019-03-24T19:01:51.645Z,68.48
2019-03-24T19:04:55.045Z,68.92
2019-03-24T19:07:58.389Z,68.57
2019-03-24T19:11:01.733Z,68.44
2019-03-24T19:14:05.246Z,69.27
2019-03-24T19:17:10.130Z,70.17
2019-03-24T19:20:14.591Z,70.51
2019-03-24T19:23:17.907Z,70.57
2019-03-24T19:26:21.241Z,70.69
2019-03-24T19:29:24.579Z,70.52
2019-03-24T19:32:28.499Z,70.68
2019-03-24T19:35:31.992Z,70.65
2019-03-24T19:38:35.991Z,71.21
2019-03-24T19:41:39.338Z,70.99
2019-03-24T19:44:43.180Z,70.43
2019-03-24T19:47:46.506Z,70.83
2019-03-24T19:50:49.866Z,70.54
2019-03-24T19:53:53.955Z,70.74
2019-03-24T19:56:58.080Z,71.53
2019-03-24T20:00:01.593Z,71.58
2019-03-24T20:03:05.101Z,71.35
2019-03-24T20:06:09.105Z,71.30
2019-03-24T20:09:12.683Z,70.74
2019-03-24T20:12:16.029Z,68.71
2019-03-24T20:15:19.565Z,67.48
2019-03-24T20:18:23.387Z,66.35
2019-03-24T20:21:32.125Z,65.37
2019-03-24T20:24:35.678Z,64.40
2019-03-24T20:27:39.013Z,64.40
2019-03-24T20:30:42.356Z,64.96
2019-03-24T20:33:45.712Z,64.31
2019-03-24T20:36:49.064Z,64.40
2019-03-24T20:39:52.568Z,64.60
2019-03-24T20:42:55.902Z,65.32
2019-03-24T20:45:59.534Z,65.28
2019-03-24T20:49:02.855Z,64.83
2019-03-24T20:52:06.236Z,64.72
2019-03-24T20:55:09.666Z,63.67
2019-03-24T20:58:13.005Z,62.52
2019-03-24T21:01:18.732Z,62.22
2019-03-24T21:04:21.423Z,61.46
2019-03-24T21:07:24.832Z,62.07
2019-03-24T21:10:29.843Z,63.00
2019-03-24T21:13:33.233Z,63.57
2019-03-24T21:16:36.570Z,63.60
2019-03-24T21:19:39.907Z,62.38
2019-03-24T21:22:43.227Z,63.08
2019-03-24T21:25:46.568Z,64.37
2019-03-24T21:28:51.931Z,65.14
2019-03-24T21:31:55.328Z,66.00
2019-03-24T21:34:58.721Z,66.04
2019-03-24T21:38:02.039Z,66.11
2019-03-24T21:41:05.397Z,66.03
2019-03-24T21:44:08.782Z,66.41
2019-03-24T21:47:12.123Z,64.74
2019-03-24T21:50:15.442Z,64.94
2019-03-24T21:53:18.757Z,64.58
2019-03-24T21:56:22.163Z,64.14
2019-03-24T21:59:25.452Z,63.36
2019-03-24T22:02:28.958Z,63.06
2019-03-24T22:05:32.293Z,62.28
2019-03-24T22:08:35.618Z,61.65
2019-03-24T22:11:38.969Z,60.33
2019-03-24T22:14:42.307Z,60.11
2019-03-24T22:17:45.624Z,58.98
2019-03-24T22:20:49.389Z,57.64
2019-03-24T22:23:52.809Z,57.50
2019-03-24T22:26:56.152Z,57.75
2019-03-24T22:29:59.455Z,57.47
2019-03-24T22:33:02.780Z,57.25
2019-03-24T22:36:06.110Z,57.57
2019-03-24T22:39:09.462Z,57.60
2019-03-24T22:42:12.862Z,58.19
2019-03-24T22:45:16.235Z,57.07
2019-03-24T22:48:19.560Z,57.63
2019-03-24T22:51:22.900Z,58.21
2019-03-24T22:54:29.100Z,57.87
2019-03-24T22:57:32.728Z,58.53
2019-03-24T23:00:51.087Z,58.44
2019-03-24T23:03:56.059Z,59.19
2019-03-24T23:06:59.394Z,59.93
2019-03-24T23:10:02.756Z,60.04
2019-03-24T23:13:06.094Z,60.29
2019-03-24T23:16:09.484Z,60.56
2019-03-24T23:19:12.815Z,60.27
2019-03-24T23:22:16.118Z,60.88
2019-03-24T23:25:19.453Z,60.97
2019-03-24T23:28:22.776Z,60.97
2019-03-24T23:31:26.083Z,59.70
2019-03-24T23:34:29.476Z,60.33
2019-03-24T23:37:32.818Z,61.03
2019-03-24T23:40:36.125Z,59.62
2019-03-24T23:43:39.429Z,59.42
2019-03-24T23:46:42.823Z,60.13
2019-03-24T23:49:46.137Z,59.93
2019-03-24T23:52:49.446Z,60.06
2019-03-24T23:55:52.819Z,59.73
2019-03-24T23:58:56.143Z,60.24
